Grover Beach, California
Current Conditions -  °F | °C
As of 3:56 AM on Friday 24 Oct 2014 (Local Time) from KSBP Reporting Station
Moderate Fog Moderate Fog  
Wind Chill: 50°   Ceiling: 200
Heat Index: 50°   Visibility: 0.25mi
Dew Point: 50°   Wind: 0mph
Humidity: 100%   Direction: NA
Pressure: 29.97"   Gusts: NA
Location:  35.12°N, 120.62°W
Report Text: KSBP 241056Z AUTO 00000KT 1/4SM FG VV002 10/10 A2997 RMK AO2 SLP147 T01000100
Loading
Personal Weather Stations






























Interactive Weather Map
Tropical Storm Tracking
New forecast layout! Learn more

10-Day Weather Forecast

Advertisements
Track Severe Weather on mobile